sensor_id;sensor_type;location;lat;lon;timestamp;pressure;altitude;pressure_sealevel;temperature;humidity
61740;BME280;47645;45.288;12.038;2024-03-06T00:02:51;1011.8248425742007;;;12.537109375;100
61740;BME280;47645;45.288;12.038;2024-03-06T00:12:52;1011.8117920554994;;;12.6033203125;100
61740;BME280;47645;45.288;12.038;2024-03-06T00:22:53;1011.833970217652;;;12.5830078125;100
61740;BME280;47645;45.288;12.038;2024-03-06T00:32:54;1011.8662177603808;;;12.4453125;100
61740;BME280;47645;45.288;12.038;2024-03-06T00:42:54;1011.9045709739032;;;12.425;100
61740;BME280;47645;45.288;12.038;2024-03-06T00:52:55;1011.864121919714;;;12.226171875;100
61740;BME280;47645;45.288;12.038;2024-03-06T01:02:56;1011.9403062630757;;;12.00703125;100
61740;BME280;47645;45.288;12.038;2024-03-06T01:12:57;1012.0258923186615;;;11.803125;100
61740;BME280;47645;45.288;12.038;2024-03-06T01:22:58;1011.9963207230616;;;11.7216796875;100
61740;BME280;47645;45.288;12.038;2024-03-06T01:32:58;1012.0321160249861;;;11.670703125;100
61740;BME280;47645;45.288;12.038;2024-03-06T01:42:59;1011.9708559795034;;;11.6859375;100
61740;BME280;47645;45.288;12.038;2024-03-06T01:53:00;1011.9174057395827;;;11.609375;100
61740;BME280;47645;45.288;12.038;2024-03-06T02:03:01;1011.9322399510098;;;11.5177734375;100
61740;BME280;47645;45.288;12.038;2024-03-06T02:13:02;1011.8627924370674;;;11.145703125;100
61740;BME280;47645;45.288;12.038;2024-03-06T02:23:03;1011.8690257600588;;;11.038671875;100
61740;BME280;47645;45.288;12.038;2024-03-06T02:33:05;1011.7905151923384;;;10.8654296875;100
61740;BME280;47645;45.288;12.038;2024-03-06T02:43:05;1011.7479472961218;;;10.41171875;100
61740;BME280;47645;45.288;12.038;2024-03-06T02:53:04;1011.7499941494408;;;10.284375;100
61740;BME280;47645;45.288;12.038;2024-03-06T03:03:05;1011.9032484216333;;;9.8255859375;100
61740;BME280;47645;45.288;12.038;2024-03-06T03:13:06;1011.9098341948054;;;9.76953125;100
61740;BME280;47645;45.288;12.038;2024-03-06T03:23:12;1011.9981293662237;;;10.3251953125;100
61740;BME280;47645;45.288;12.038;2024-03-06T03:33:08;1011.9864298964075;;;10.27421875;100
61740;BME280;47645;45.288;12.038;2024-03-06T03:43:08;1012.0807687142786;;;9.7951171875;100
61740;BME280;47645;45.288;12.038;2024-03-06T03:53:08;1012.1248579683164;;;10.1416015625;100
61740;BME280;47645;45.288;12.038;2024-03-06T04:03:09;1012.0333539663826;;;10.0091796875;100
61740;BME280;47645;45.288;12.038;2024-03-06T04:13:10;1012.0623612729204;;;10.0091796875;100
61740;BME280;47645;45.288;12.038;2024-03-06T04:23:10;1012.056162187013;;;9.7287109375;100
61740;BME280;47645;45.288;12.038;2024-03-06T04:33:14;1012.1324394942416;;;9.6931640625;100
61740;BME280;47645;45.288;12.038;2024-03-06T04:43:11;1012.1936543349088;;;9.560546875;100
61740;BME280;47645;45.288;12.038;2024-03-06T04:53:12;1012.3250993062585;;;9.41796875;100
61740;BME280;47645;45.288;12.038;2024-03-06T05:03:13;1012.4636128912841;;;9.336328125;100
61740;BME280;47645;45.288;12.038;2024-03-06T05:13:13;1012.4479199392445;;;9.1833984375;100
61740;BME280;47645;45.288;12.038;2024-03-06T05:23:15;1012.5405891066885;;;9.132421875;100
61740;BME280;47645;45.288;12.038;2024-03-06T05:33:15;1012.703106338543;;;9.015234375;100
61740;BME280;47645;45.288;12.038;2024-03-06T05:43:15;1012.782340546518;;;8.8470703125;100
61740;BME280;47645;45.288;12.038;2024-03-06T05:53:16;1012.8787033864376;;;8.7197265625;100
61740;BME280;47645;45.288;12.038;2024-03-06T06:03:16;1012.9045880812884;;;8.5056640625;100
61740;BME280;47645;45.288;12.038;2024-03-06T06:13:17;1012.9461641818934;;;8.7298828125;100
61740;BME280;47645;45.288;12.038;2024-03-06T06:23:17;1012.9776778859571;;;8.69921875;100
61740;BME280;47645;45.288;12.038;2024-03-06T06:33:18;1013.0848162056016;;;8.571875;100
61740;BME280;47645;45.288;12.038;2024-03-06T06:43:18;1013.1685786804118;;;9.0611328125;100
61740;BME280;47645;45.288;12.038;2024-03-06T06:53:20;1013.3275304586499;;;9.560546875;100
61740;BME280;47645;45.288;12.038;2024-03-06T07:03:20;1013.2684521332163;;;10.0447265625;100
61740;BME280;47645;45.288;12.038;2024-03-06T07:13:20;1013.3746578016239;;;10.5494140625;100
61740;BME280;47645;45.288;12.038;2024-03-06T07:23:21;1013.4325237605065;;;11.0181640625;100
61740;BME280;47645;45.288;12.038;2024-03-06T07:33:22;1013.4874012863518;;;11.4361328125;100
61740;BME280;47645;45.288;12.038;2024-03-06T07:43:23;1013.601745897565;;;11.6400390625;98.82265251132483
61740;BME280;47645;45.288;12.038;2024-03-06T07:53:23;1013.7184989133208;;;11.8744140625;92.2519993561732
61740;BME280;47645;45.288;12.038;2024-03-06T08:03:25;1013.7026938600495;;;12.5166015625;90.43210320614656
61740;BME280;47645;45.288;12.038;2024-03-06T08:13:24;1013.8405635597427;;;12.6185546875;83.62934211501144
61740;BME280;47645;45.288;12.038;2024-03-06T08:23:25;1013.9308509954898;;;12.995703125;87.13286697736083
61740;BME280;47645;45.288;12.038;2024-03-06T08:33:26;1013.9679170054791;;;13.5615234375;86.67088888510698
61740;BME280;47645;45.288;12.038;2024-03-06T08:43:27;1014.0842140450503;;;13.9029296875;88.41683988589361
61740;BME280;47645;45.288;12.038;2024-03-06T08:53:27;1014.2345598299057;;;14.1732421875;85.70128646089285
61740;BME280;47645;45.288;12.038;2024-03-06T09:03:28;1014.2686642510274;;;14.5453125;83.1631369222608
61740;BME280;47645;45.288;12.038;2024-03-06T09:13:28;1014.4293962464766;;;14.5146484375;90.94663851764905
61740;BME280;47645;45.288;12.038;2024-03-06T09:23:30;1014.5425933527745;;;14.998828125;88.684734038256
61740;BME280;47645;45.288;12.038;2024-03-06T09:33:30;1014.5602330390485;;;15.5849609375;77.44237364468178
61740;BME280;47645;45.288;12.038;2024-03-06T09:43:31;1014.5282553622224;;;16.0845703125;76.20181251462645
61740;BME280;47645;45.288;12.038;2024-03-06T09:53:32;1014.3970888118779;;;16.7828125;72.85653064189543
61740;BME280;47645;45.288;12.038;2024-03-06T10:03:33;1014.4720528479371;;;16.86953125;63.63833675693066
61740;BME280;47645;45.288;12.038;2024-03-06T10:13:33;1014.4412245855891;;;17.0376953125;55.137611367062064
61740;BME280;47645;45.288;12.038;2024-03-06T10:23:35;1014.3930006580246;;;17.129296875;77.00551581231308
61740;BME280;47645;45.288;12.038;2024-03-06T10:33:35;1014.3409775924443;;;17.3587890625;73.46501521896116
61740;BME280;47645;45.288;12.038;2024-03-06T10:43:38;1014.3217911020985;;;17.633984375;63.87825102149437
61740;BME280;47645;45.288;12.038;2024-03-06T10:53:37;1014.592290904837;;;18.25078125;73.02449453667123
61740;BME280;47645;45.288;12.038;2024-03-06T11:03:38;1014.4259280405952;;;18.072265625;71.91310663044857
61740;BME280;47645;45.288;12.038;2024-03-06T11:13:39;1014.4362873928641;;;17.96015625;70.84091108480457
61740;BME280;47645;45.288;12.038;2024-03-06T11:24:12;1014.3957216428022;;;17.730859375;54.19639259773428
61740;BME280;47645;45.288;12.038;2024-03-06T11:33:42;1014.2950832533055;;;17.9703125;52.28719443666416
61740;BME280;47645;45.288;12.038;2024-03-06T11:43:42;1014.2363027892093;;;18.4953125;55.59386900104945
61740;BME280;47645;45.288;12.038;2024-03-06T11:53:45;1014.0524891309681;;;18.051953125;72.01911384386688
61740;BME280;47645;45.288;12.038;2024-03-06T12:03:44;1014.0484759322621;;;18.5361328125;70.02076863600514
61740;BME280;47645;45.288;12.038;2024-03-06T12:13:45;1013.9945351196802;;;18.7859375;80.63566602682214
61740;BME280;47645;45.288;12.038;2024-03-06T12:23:46;1013.9869341705003;;;19.1732421875;74.13693008420395
61740;BME280;47645;45.288;12.038;2024-03-06T12:33:56;1013.9951069944088;;;19.112109375;57.59925081286795
61740;BME280;47645;45.288;12.038;2024-03-06T12:43:48;1014.0032990758622;;;19.1427734375;65.20144367752215
61740;BME280;47645;45.288;12.038;2024-03-06T12:53:49;1014.051644055028;;;17.8990234375;52.000674033253766
61740;BME280;47645;45.288;12.038;2024-03-06T13:03:50;1014.0222706575245;;;17.409765625;56.67813002051212
61740;BME280;47645;45.288;12.038;2024-03-06T13:13:50;1014.0876286416976;;;17.1751953125;54.34302326308398
61740;BME280;47645;45.288;12.038;2024-03-06T13:23:52;1014.1223704091985;;;16.359765625;67.33106041551349
61740;BME280;47645;45.288;12.038;2024-03-06T13:33:54;1014.1745430664475;;;16.3240234375;58.86438604843235
61740;BME280;47645;45.288;12.038;2024-03-06T13:43:53;1014.2352784411546;;;15.921484375;67.07810677157859
61740;BME280;47645;45.288;12.038;2024-03-06T13:53:54;1014.1045179976198;;;16.0130859375;79.01940316342616
61740;BME280;47645;45.288;12.038;2024-03-06T14:03:55;1014.1164068554057;;;15.8908203125;83.83545634457711
61740;BME280;47645;45.288;12.038;2024-03-06T14:13:57;1014.0274604121881;;;15.824609375;75.34905173551715
61740;BME280;47645;45.288;12.038;2024-03-06T14:23:59;1014.0259879930841;;;15.60546875;75.53289815927785
61740;BME280;47645;45.288;12.038;2024-03-06T14:33:59;1013.979515672536;;;15.7328125;73.1480587595268
61740;BME280;47645;45.288;12.038;2024-03-06T14:44:01;1013.9811099559578;;;15.7787109375;69.41874141982862
61740;BME280;47645;45.288;12.038;2024-03-06T14:54:00;1013.8999133183642;;;15.43203125;69.00010395469776
61740;BME280;47645;45.288;12.038;2024-03-06T15:04:01;1013.9316885320316;;;15.9826171875;68.69412116824903
61740;BME280;47645;45.288;12.038;2024-03-06T15:14:02;1013.9099476150237;;;15.615625;72.62030749856102
61740;BME280;47645;45.288;12.038;2024-03-06T15:24:03;1013.9805930759645;;;14.5962890625;83.63765629761001
61740;BME280;47645;45.288;12.038;2024-03-06T15:34:03;1013.9180861435449;;;14.3005859375;93.78695579016596
61740;BME280;47645;45.288;12.038;2024-03-06T15:44:05;1013.9589240984761;;;14.5349609375;85.59510805216253
61740;BME280;47645;45.288;12.038;2024-03-06T15:54:05;1014.0739725726675;;;14.5349609375;94.14645820335002
61740;BME280;47645;45.288;12.038;2024-03-06T16:04:06;1014.2540249982686;;;13.6837890625;89.99523392847125
61740;BME280;47645;45.288;12.038;2024-03-06T16:14:07;1014.2375515995965;;;13.4544921875;84.46179955091938
61740;BME280;47645;45.288;12.038;2024-03-06T16:24:09;1014.3097456485698;;;13.3984375;83.42510759528491
61740;BME280;47645;45.288;12.038;2024-03-06T16:34:08;1014.3200754158371;;;13.378125;83.13137626671725
61740;BME280;47645;45.288;12.038;2024-03-06T16:44:11;1014.3589200606671;;;12.858203125;88.32514292986563
61740;BME280;47645;45.288;12.038;2024-03-06T16:54:10;1014.3940165926142;;;13.169140625;100
61740;BME280;47645;45.288;12.038;2024-03-06T17:04:18;1014.4816092752811;;;12.8734375;94.1643146859838
61740;BME280;47645;45.288;12.038;2024-03-06T17:14:11;1014.5274038743706;;;12.6185546875;91.73193117449489
61740;BME280;47645;45.288;12.038;2024-03-06T17:24:12;1014.6412214485608;;;12.3791015625;93.00723104128134
61740;BME280;47645;45.288;12.038;2024-03-06T17:34:13;1014.7623410396675;;;12.0580078125;98.73020833254071
61740;BME280;47645;45.288;12.038;2024-03-06T17:44:14;1014.7465574433074;;;11.8337890625;100
61740;BME280;47645;45.288;12.038;2024-03-06T17:54:17;1014.7983616672484;;;11.680859375;100
61740;BME280;47645;45.288;12.038;2024-03-06T18:04:15;1014.816636200074;;;11.70625;100
61740;BME280;47645;45.288;12.038;2024-03-06T18:14:16;1014.9313822966609;;;11.808203125;100
61740;BME280;47645;45.288;12.038;2024-03-06T18:24:17;1014.8913127671254;;;11.7419921875;100
61740;BME280;47645;45.288;12.038;2024-03-06T18:34:19;1014.9961830540003;;;11.56875;100
61740;BME280;47645;45.288;12.038;2024-03-06T18:44:18;1015.0507498081782;;;11.3037109375;100
61740;BME280;47645;45.288;12.038;2024-03-06T18:54:19;1015.1640536594277;;;11.3138671875;100
61740;BME280;47645;45.288;12.038;2024-03-06T19:04:23;1015.2848623281684;;;11.1916015625;100
61740;BME280;47645;45.288;12.038;2024-03-06T19:14:21;1015.33237442696;;;11.069140625;100
61740;BME280;47645;45.288;12.038;2024-03-06T19:24:21;1015.4036164684794;;;10.93671875;100
61740;BME280;47645;45.288;12.038;2024-03-06T19:34:22;1015.4441669870553;;;10.81953125;100
61740;BME280;47645;45.288;12.038;2024-03-06T19:44:26;1015.4806381172739;;;10.6615234375;100
61740;BME280;47645;45.288;12.038;2024-03-06T19:54:23;1015.4904556150436;;;10.493359375;100
61740;BME280;47645;45.288;12.038;2024-03-06T20:04:24;1015.5499960091873;;;10.406640625;100
61740;BME280;47645;45.288;12.038;2024-03-06T20:14:25;1015.63801235252;;;10.5392578125;100
61740;BME280;47645;45.288;12.038;2024-03-06T20:24:26;1015.6336261947383;;;10.5392578125;100
61740;BME280;47645;45.288;12.038;2024-03-06T20:34:27;1015.7243875732609;;;10.5544921875;100
61740;BME280;47645;45.288;12.038;2024-03-06T20:44:28;1015.7247996604959;;;10.416796875;100
61740;BME280;47645;45.288;12.038;2024-03-06T20:54:27;1015.7969509655637;;;10.386328125;100
61740;BME280;47645;45.288;12.038;2024-03-06T21:04:29;1015.8629080616116;;;10.1875;100
61740;BME280;47645;45.288;12.038;2024-03-06T21:14:28;1015.9296476003561;;;10.1162109375;100
61740;BME280;47645;45.288;12.038;2024-03-06T21:24:29;1015.9369972932583;;;10.0447265625;100
61740;BME280;47645;45.288;12.038;2024-03-06T21:34:30;1015.9176828360422;;;10.1671875;100
61740;BME280;47645;45.288;12.038;2024-03-06T21:44:30;1015.9141319954811;;;10.0703125;100
61740;BME280;47645;45.288;12.038;2024-03-06T21:54:31;1015.9331068071605;;;10.1416015625;100
61740;BME280;47645;45.288;12.038;2024-03-06T22:04:31;1015.8575907059388;;;10.1111328125;100
61740;BME280;47645;45.288;12.038;2024-03-06T22:14:32;1015.8737724919494;;;10.1162109375;100
61740;BME280;47645;45.288;12.038;2024-03-06T22:24:32;1015.7909104409706;;;9.84609375;100
61740;BME280;47645;45.288;12.038;2024-03-06T22:34:35;1015.74154079982;;;10.2283203125;100
61740;BME280;47645;45.288;12.038;2024-03-06T22:44:36;1015.823948655372;;;10.08046875;100
61740;BME280;47645;45.288;12.038;2024-03-06T22:54:34;1016.0412619669069;;;10.075390625;100
61740;BME280;47645;45.288;12.038;2024-03-06T23:04:37;1016.1275249084306;;;10.3353515625;100
61740;BME280;47645;45.288;12.038;2024-03-06T23:14:38;1016.1643375286077;;;10.3455078125;100
61740;BME280;47645;45.288;12.038;2024-03-06T23:24:36;1016.1258886500209;;;10.2435546875;100
61740;BME280;47645;45.288;12.038;2024-03-06T23:34:37;1016.0315797540742;;;10.2435546875;100
61740;BME280;47645;45.288;12.038;2024-03-06T23:44:37;1015.9762820096274;;;10.52890625;100
61740;BME280;47645;45.288;12.038;2024-03-06T23:54:39;1016.0127028260424;;;10.3353515625;100
